createdAt,value
2022-08-28T00:01:36.588Z,5.50
2022-08-28T00:04:03.422Z,5.43
2022-08-28T00:06:29.885Z,5.72
2022-08-28T00:08:56.551Z,5.82
2022-08-28T00:11:23.246Z,5.70
2022-08-28T00:13:49.824Z,5.20
2022-08-28T00:16:18.084Z,6.15
2022-08-28T00:18:44.933Z,5.88
2022-08-28T00:21:13.899Z,5.60
2022-08-28T00:23:43.113Z,5.32
2022-08-28T00:26:10.141Z,6.20
2022-08-28T00:28:36.530Z,5.20
2022-08-28T00:31:03.056Z,5.85
2022-08-28T00:33:31.112Z,5.13
2022-08-28T00:35:57.778Z,5.13
2022-08-28T00:38:25.665Z,6.57
2022-08-28T00:40:53.593Z,5.13
2022-08-28T00:43:26.975Z,5.75
2022-08-28T00:45:53.543Z,5.28
2022-08-28T00:48:19.994Z,5.22
2022-08-28T00:51:05.264Z,5.53
2022-08-28T00:53:33.175Z,6.57
2022-08-28T00:56:02.288Z,5.90
2022-08-28T00:58:33.768Z,6.88
2022-08-28T01:01:00.599Z,6.85
2022-08-28T01:03:28.084Z,6.70
2022-08-28T01:05:54.456Z,6.88
2022-08-28T01:08:20.872Z,7.65
2022-08-28T01:10:52.893Z,8.90
2022-08-28T01:13:19.962Z,8.60
2022-08-28T01:15:47.450Z,8.50
2022-08-28T01:18:15.786Z,10.32
2022-08-28T01:20:46.760Z,10.38
2022-08-28T01:23:20.278Z,11.20
2022-08-28T01:25:46.703Z,10.60
2022-08-28T01:28:14.418Z,10.43
2022-08-28T01:30:42.331Z,10.77
2022-08-28T01:33:08.823Z,11.70
2022-08-28T01:35:36.116Z,11.48
2022-08-28T01:38:03.574Z,11.02
2022-08-28T01:40:32.203Z,10.45
2022-08-28T01:43:06.509Z,10.48
2022-08-28T01:45:32.955Z,10.30
2022-08-28T01:47:59.397Z,10.68
2022-08-28T01:50:25.897Z,8.48
2022-08-28T01:52:52.343Z,10.20
2022-08-28T01:55:20.644Z,9.57
2022-08-28T01:57:49.678Z,10.68
2022-08-28T02:00:16.730Z,10.65
2022-08-28T02:02:43.514Z,9.73
2022-08-28T02:05:10.759Z,9.88
2022-08-28T02:07:37.522Z,10.18
2022-08-28T02:10:05.527Z,8.88
2022-08-28T02:12:32.487Z,9.20
2022-08-28T02:14:58.915Z,6.88
2022-08-28T02:17:25.376Z,7.72
2022-08-28T02:19:51.844Z,7.82
2022-08-28T02:22:18.288Z,6.53
2022-08-28T02:24:45.300Z,6.47
2022-08-28T02:27:11.723Z,6.63
2022-08-28T02:29:39.077Z,6.10
2022-08-28T02:32:06.151Z,6.22
2022-08-28T02:34:33.655Z,6.65
2022-08-28T02:37:00.075Z,6.85
2022-08-28T02:39:27.467Z,6.80
2022-08-28T02:41:53.826Z,5.63
2022-08-28T02:44:20.246Z,5.85
2022-08-28T02:46:46.667Z,5.43
2022-08-28T02:49:13.075Z,5.72
2022-08-28T02:51:39.469Z,6.82
2022-08-28T02:54:05.895Z,6.47
2022-08-28T02:56:32.413Z,5.18
2022-08-28T02:58:58.811Z,5.15
2022-08-28T03:01:25.453Z,5.78
2022-08-28T03:03:51.913Z,5.57
2022-08-28T03:06:18.318Z,6.18
2022-08-28T03:08:44.954Z,5.38
2022-08-28T03:11:11.966Z,5.25
2022-08-28T03:13:38.597Z,5.13
2022-08-28T03:16:05.091Z,5.00
2022-08-28T03:18:33.040Z,5.57
2022-08-28T03:20:59.784Z,4.53
2022-08-28T03:23:26.478Z,4.45
2022-08-28T03:25:57.824Z,4.07
2022-08-28T03:28:25.125Z,4.68
2022-08-28T03:30:51.714Z,4.78
2022-08-28T03:33:18.707Z,4.18
2022-08-28T03:35:45.108Z,4.10
2022-08-28T03:38:11.789Z,4.88
2022-08-28T03:40:39.636Z,5.22
2022-08-28T03:43:06.948Z,5.18
2022-08-28T03:45:33.502Z,4.43
2022-08-28T03:47:59.985Z,3.75
2022-08-28T03:50:26.590Z,4.43
2022-08-28T03:52:55.376Z,4.13
2022-08-28T03:55:22.899Z,4.65
2022-08-28T03:57:49.266Z,4.32
2022-08-28T04:00:16.370Z,3.65
2022-08-28T04:02:43.890Z,4.55
2022-08-28T04:05:11.156Z,4.43
2022-08-28T04:07:37.708Z,4.38
2022-08-28T04:10:04.565Z,3.70
2022-08-28T04:12:32.844Z,4.43
2022-08-28T04:15:02.042Z,4.00
2022-08-28T04:17:28.547Z,4.10
2022-08-28T04:19:55.014Z,4.93
2022-08-28T04:22:21.495Z,4.07
2022-08-28T04:24:50.109Z,4.10
2022-08-28T04:27:16.497Z,4.30
2022-08-28T04:29:43.012Z,4.22
2022-08-28T04:32:09.604Z,4.00
2022-08-28T04:34:37.298Z,4.18
2022-08-28T04:37:05.490Z,3.47
2022-08-28T04:39:32.311Z,4.32
2022-08-28T04:41:58.745Z,4.70
2022-08-28T04:44:25.174Z,4.25
2022-08-28T04:46:51.546Z,3.95
2022-08-28T04:49:18.084Z,3.92
2022-08-28T04:51:44.541Z,4.18
2022-08-28T04:54:13.518Z,4.03
2022-08-28T04:56:40.686Z,3.70
2022-08-28T04:59:07.528Z,4.70
2022-08-28T05:01:34.017Z,4.57
2022-08-28T05:04:02.267Z,4.30
2022-08-28T05:06:29.592Z,4.97
2022-08-28T05:09:00.389Z,4.35
2022-08-28T05:11:33.240Z,4.70
2022-08-28T05:14:02.340Z,4.30
2022-08-28T05:16:28.907Z,3.90
2022-08-28T05:19:00.125Z,4.20
2022-08-28T05:21:28.378Z,5.28
2022-08-28T05:23:57.400Z,4.00
2022-08-28T05:26:27.103Z,4.35
2022-08-28T05:28:55.355Z,3.70
2022-08-28T05:31:22.501Z,4.72
2022-08-28T05:33:49.867Z,4.82
2022-08-28T05:36:16.688Z,4.13
2022-08-28T05:38:44.293Z,4.32
2022-08-28T05:41:11.882Z,5.15
2022-08-28T05:43:39.235Z,5.18
2022-08-28T05:46:10.256Z,5.45
2022-08-28T05:51:06.344Z,4.93
2022-08-28T05:53:38.766Z,5.18
2022-08-28T05:56:05.478Z,4.75
2022-08-28T05:58:33.460Z,5.78
2022-08-28T06:01:17.267Z,4.90
2022-08-28T06:03:45.186Z,5.63
2022-08-28T06:06:12.534Z,5.82
2022-08-28T06:08:39.662Z,4.45
2022-08-28T06:11:26.089Z,5.60
2022-08-28T06:13:53.328Z,5.95
2022-08-28T06:16:20.254Z,5.40
2022-08-28T06:18:47.021Z,5.22
2022-08-28T06:21:13.849Z,5.72
2022-08-28T06:23:41.138Z,6.88
2022-08-28T06:26:07.751Z,5.85
2022-08-28T06:28:34.253Z,7.03
2022-08-28T06:31:23.020Z,5.97
2022-08-28T06:33:48.637Z,7.15
2022-08-28T06:36:15.123Z,5.72
2022-08-28T06:38:46.496Z,6.03
2022-08-28T06:41:13.782Z,6.95
2022-08-28T06:43:40.184Z,6.45
2022-08-28T06:46:07.141Z,7.53
2022-08-28T06:48:34.091Z,7.55
2022-08-28T06:51:00.838Z,6.90
2022-08-28T06:53:28.953Z,6.88
2022-08-28T06:56:09.039Z,6.55
2022-08-28T06:58:40.668Z,6.15
2022-08-28T07:01:07.262Z,6.13
2022-08-28T07:03:34.081Z,6.13
2022-08-28T07:06:01.129Z,6.30
2022-08-28T07:08:28.267Z,6.50
2022-08-28T07:10:55.426Z,6.45
2022-08-28T07:13:22.559Z,5.30
2022-08-28T07:15:49.711Z,5.18
2022-08-28T07:18:17.424Z,4.70
2022-08-28T07:20:44.761Z,6.18
2022-08-28T07:23:11.195Z,5.55
2022-08-28T07:25:41.928Z,5.72
2022-08-28T07:28:08.588Z,5.50
2022-08-28T07:30:35.024Z,5.38
2022-08-28T07:33:01.517Z,5.85
2022-08-28T07:35:27.986Z,5.28
2022-08-28T07:37:54.523Z,5.97
2022-08-28T07:40:22.370Z,6.00
2022-08-28T07:43:07.688Z,6.25
2022-08-28T07:45:35.794Z,5.30
2022-08-28T07:48:11.837Z,5.13
2022-08-28T07:50:38.329Z,7.45
2022-08-28T07:53:08.135Z,5.50
2022-08-28T07:55:34.559Z,6.18
2022-08-28T07:58:02.267Z,5.65
2022-08-28T08:00:28.670Z,7.18
2022-08-28T08:02:55.091Z,5.40
2022-08-28T08:05:21.765Z,4.70
2022-08-28T08:07:48.226Z,5.38
2022-08-28T08:10:14.930Z,6.53
2022-08-28T08:12:47.271Z,5.55
2022-08-28T08:15:13.710Z,7.25
2022-08-28T08:17:40.448Z,7.38
2022-08-28T08:20:07.700Z,5.05
2022-08-28T08:22:34.229Z,5.47
2022-08-28T08:25:00.844Z,4.88
2022-08-28T08:27:27.531Z,4.85
2022-08-28T08:29:53.949Z,4.68
2022-08-28T08:32:20.484Z,6.65
2022-08-28T08:34:47.042Z,5.45
2022-08-28T08:37:13.593Z,6.35
2022-08-28T08:39:41.541Z,5.70
2022-08-28T08:42:18.610Z,6.72
2022-08-28T08:44:47.525Z,7.20
2022-08-28T08:47:25.170Z,5.85
2022-08-28T08:49:54.358Z,6.05
2022-08-28T08:52:27.128Z,5.40
2022-08-28T08:55:02.111Z,6.88
2022-08-28T08:57:29.022Z,5.65
2022-08-28T08:59:55.358Z,6.90
2022-08-28T09:02:31.216Z,6.45
2022-08-28T09:05:06.252Z,6.32
2022-08-28T09:07:40.022Z,6.28
2022-08-28T09:10:08.337Z,5.90
2022-08-28T09:12:54.348Z,5.57
2022-08-28T09:15:26.447Z,5.60
2022-08-28T09:17:54.506Z,5.68
2022-08-28T09:20:29.112Z,6.65
2022-08-28T09:22:59.409Z,6.25
2022-08-28T09:25:44.395Z,6.38
2022-08-28T09:28:15.945Z,6.18
2022-08-28T09:30:43.399Z,5.70
2022-08-28T09:33:10.047Z,9.27
2022-08-28T09:35:37.377Z,6.38
2022-08-28T09:38:36.758Z,7.18
2022-08-28T09:41:29.266Z,5.43
2022-08-28T09:43:56.177Z,5.95
2022-08-28T09:46:32.537Z,5.78
2022-08-28T09:49:09.389Z,5.80
2022-08-28T09:51:38.708Z,5.93
2022-08-28T09:54:13.023Z,5.97
2022-08-28T09:56:40.862Z,5.82
2022-08-28T09:59:09.103Z,5.93
2022-08-28T10:01:35.478Z,5.18
2022-08-28T10:04:04.815Z,6.07
2022-08-28T10:06:36.326Z,5.72
2022-08-28T10:09:14.885Z,6.72
2022-08-28T10:11:50.365Z,5.85
2022-08-28T10:14:28.927Z,6.05
2022-08-28T10:16:55.346Z,5.35
2022-08-28T10:19:28.947Z,5.65
2022-08-28T10:21:55.420Z,6.07
2022-08-28T10:24:37.122Z,6.60
2022-08-28T10:27:17.573Z,6.25
2022-08-28T10:29:50.144Z,6.97
2022-08-28T10:32:30.989Z,6.63
2022-08-28T10:34:57.404Z,5.53
2022-08-28T10:37:24.736Z,7.45
2022-08-28T10:39:55.441Z,6.18
2022-08-28T10:42:30.181Z,6.68
2022-08-28T10:45:17.087Z,8.45
2022-08-28T10:50:22.473Z,7.32
2022-08-28T10:52:53.648Z,6.93
2022-08-28T10:55:20.190Z,6.35
2022-08-28T10:58:02.511Z,6.25
2022-08-28T11:00:29.213Z,6.72
2022-08-28T11:03:01.091Z,6.97
2022-08-28T11:05:31.222Z,6.43
2022-08-28T11:08:00.927Z,8.23
2022-08-28T11:10:37.064Z,8.38
2022-08-28T11:13:04.866Z,8.20
2022-08-28T11:15:37.427Z,5.82
2022-08-28T11:18:16.215Z,6.82
2022-08-28T11:20:57.355Z,7.97
2022-08-28T11:25:54.779Z,6.63
2022-08-28T11:28:24.537Z,9.07
2022-08-28T11:31:06.213Z,7.78
2022-08-28T11:33:41.636Z,6.57
2022-08-28T11:36:20.269Z,6.57
2022-08-28T11:38:53.228Z,6.65
2022-08-28T11:41:27.816Z,6.82
2022-08-28T11:44:09.529Z,6.75
2022-08-28T11:46:46.068Z,6.40
2022-08-28T11:49:32.822Z,7.18
2022-08-28T11:52:18.301Z,5.32
2022-08-28T11:55:00.140Z,6.32
2022-08-28T11:57:45.649Z,6.53
2022-08-28T12:00:21.628Z,7.05
2022-08-28T12:02:49.933Z,6.60
2022-08-28T12:05:16.599Z,5.82
2022-08-28T12:07:47.453Z,5.70
2022-08-28T12:10:19.991Z,6.07
2022-08-28T12:12:46.389Z,6.00
2022-08-28T12:15:28.007Z,6.05
2022-08-28T12:17:56.877Z,5.55
2022-08-28T12:20:25.486Z,5.82
2022-08-28T12:22:54.222Z,5.35
2022-08-28T12:25:26.751Z,5.30
2022-08-28T12:27:53.964Z,5.35
2022-08-28T12:30:27.079Z,5.97
2022-08-28T12:32:57.655Z,5.75
2022-08-28T12:35:25.835Z,5.60
2022-08-28T12:37:55.744Z,5.07
2022-08-28T12:40:22.170Z,4.75
2022-08-28T12:42:52.018Z,5.15
2022-08-28T12:45:32.805Z,5.15
2022-08-28T12:48:01.228Z,5.32
2022-08-28T12:50:32.657Z,5.28
2022-08-28T12:53:00.500Z,5.03
2022-08-28T12:55:27.346Z,4.57
2022-08-28T12:57:53.918Z,4.68
2022-08-28T13:00:26.447Z,5.22
2022-08-28T13:02:54.465Z,5.25
2022-08-28T13:05:29.072Z,6.97
2022-08-28T13:07:56.406Z,4.63
2022-08-28T13:10:22.816Z,4.15
2022-08-28T13:12:56.306Z,4.90
2022-08-28T13:15:43.449Z,4.57
2022-08-28T13:18:09.963Z,4.00
2022-08-28T13:20:37.568Z,4.53
2022-08-28T13:23:04.575Z,3.28
2022-08-28T13:25:33.227Z,4.28
2022-08-28T13:28:00.717Z,3.60
2022-08-28T13:30:28.705Z,3.42
2022-08-28T13:33:00.175Z,3.40
2022-08-28T13:35:26.593Z,3.83
2022-08-28T13:37:54.641Z,3.17
2022-08-28T13:40:55.851Z,3.67
2022-08-28T13:43:11.846Z,3.42
2022-08-28T13:45:42.984Z,3.97
2022-08-28T13:48:14.242Z,2.92
2022-08-28T13:50:42.117Z,3.30
2022-08-28T13:53:11.366Z,3.42
2022-08-28T13:55:39.029Z,3.75
2022-08-28T13:58:05.460Z,3.10
2022-08-28T14:00:34.375Z,3.78
2022-08-28T14:03:19.592Z,3.30
2022-08-28T14:05:45.987Z,3.08
2022-08-28T14:08:13.129Z,3.20
2022-08-28T14:10:39.818Z,3.70
2022-08-28T14:13:06.345Z,3.53
2022-08-28T14:15:33.118Z,4.00
2022-08-28T14:17:59.506Z,3.75
2022-08-28T14:20:25.939Z,3.20
2022-08-28T14:22:52.831Z,3.40
2022-08-28T14:25:19.269Z,2.95
2022-08-28T14:27:45.934Z,3.45
2022-08-28T14:30:12.543Z,3.33
2022-08-28T14:32:39.011Z,3.25
2022-08-28T14:35:05.754Z,3.40
2022-08-28T14:37:32.238Z,3.70
2022-08-28T14:39:58.666Z,3.42
2022-08-28T14:42:26.547Z,3.28
2022-08-28T14:44:53.404Z,3.30
2022-08-28T14:47:20.043Z,3.45
2022-08-28T14:49:46.491Z,3.78
2022-08-28T14:52:13.083Z,3.30
2022-08-28T14:54:40.665Z,3.80
2022-08-28T14:57:07.058Z,3.50
2022-08-28T14:59:34.023Z,3.38
2022-08-28T15:02:01.859Z,3.78
2022-08-28T15:04:34.438Z,3.88
2022-08-28T15:07:01.939Z,3.63
2022-08-28T15:09:28.378Z,3.03
2022-08-28T15:11:54.808Z,3.67
2022-08-28T15:14:21.228Z,3.55
2022-08-28T15:16:48.283Z,3.65
2022-08-28T15:19:17.661Z,3.47
2022-08-28T15:21:45.575Z,3.75
2022-08-28T15:24:13.351Z,4.15
2022-08-28T15:26:40.249Z,3.78
2022-08-28T15:29:07.345Z,3.42
2022-08-28T15:31:35.687Z,4.00
2022-08-28T15:34:13.510Z,3.67
2022-08-28T15:36:42.170Z,3.97
2022-08-28T15:39:27.444Z,4.00
2022-08-28T15:41:54.005Z,3.88
2022-08-28T15:44:20.438Z,3.78
2022-08-28T15:46:51.196Z,3.33
2022-08-28T15:49:18.431Z,3.72
2022-08-28T15:51:44.919Z,3.90
2022-08-28T15:54:11.298Z,3.65
2022-08-28T15:56:37.966Z,3.47
2022-08-28T15:59:04.451Z,3.13
2022-08-28T16:01:31.106Z,4.53
2022-08-28T16:03:57.643Z,3.83
2022-08-28T16:06:24.575Z,3.63
2022-08-28T16:08:51.230Z,3.60
2022-08-28T16:11:19.288Z,4.18
2022-08-28T16:13:46.100Z,5.65
2022-08-28T16:16:13.186Z,3.88
2022-08-28T16:18:40.332Z,3.92
2022-08-28T16:21:07.566Z,3.85
2022-08-28T16:23:34.569Z,4.35
2022-08-28T16:26:01.903Z,4.05
2022-08-28T16:28:28.405Z,3.90
2022-08-28T16:30:55.269Z,4.00
2022-08-28T16:33:22.330Z,3.17
2022-08-28T16:35:54.937Z,3.95
2022-08-28T16:38:23.065Z,3.00
2022-08-28T16:40:49.510Z,3.47
2022-08-28T16:43:16.003Z,3.25
2022-08-28T16:45:44.028Z,2.53
2022-08-28T16:48:12.765Z,2.65
2022-08-28T16:50:39.963Z,3.08
2022-08-28T16:53:07.255Z,3.92
2022-08-28T16:55:34.403Z,4.50
2022-08-28T16:58:00.854Z,3.35
2022-08-28T17:00:27.280Z,2.75
2022-08-28T17:02:53.831Z,3.17
2022-08-28T17:05:20.365Z,2.88
2022-08-28T17:07:47.582Z,3.08
2022-08-28T17:10:16.967Z,2.95
2022-08-28T17:12:43.781Z,3.15
2022-08-28T17:15:11.358Z,3.00
2022-08-28T17:17:38.170Z,3.22
2022-08-28T17:20:05.249Z,3.13
2022-08-28T17:22:32.207Z,2.58
2022-08-28T17:25:03.393Z,2.72
2022-08-28T17:27:32.153Z,3.20
2022-08-28T17:29:58.613Z,2.80
2022-08-28T17:32:25.196Z,2.80
2022-08-28T17:34:51.564Z,3.05
2022-08-28T17:37:20.565Z,2.78
2022-08-28T17:39:47.795Z,2.97
2022-08-28T17:42:14.169Z,2.80
2022-08-28T17:44:40.546Z,2.85
2022-08-28T17:47:07.054Z,2.92
2022-08-28T17:49:33.657Z,3.63
2022-08-28T17:52:00.166Z,2.95
2022-08-28T17:54:26.593Z,3.35
2022-08-28T17:56:54.447Z,2.83
2022-08-28T17:59:21.199Z,3.22
2022-08-28T18:01:48.290Z,3.08
2022-08-28T18:04:17.967Z,3.08
2022-08-28T18:06:48.373Z,3.20
2022-08-28T18:09:15.066Z,2.95
2022-08-28T18:11:41.919Z,3.22
2022-08-28T18:14:08.521Z,3.13
2022-08-28T18:16:35.716Z,2.75
2022-08-28T18:19:08.371Z,3.13
2022-08-28T18:21:35.068Z,3.63
2022-08-28T18:24:01.702Z,3.42
2022-08-28T18:26:28.142Z,3.10
2022-08-28T18:28:54.744Z,3.15
2022-08-28T18:31:21.228Z,3.40
2022-08-28T18:33:47.696Z,3.17
2022-08-28T18:36:15.014Z,3.53
2022-08-28T18:38:42.179Z,2.83
2022-08-28T18:41:09.065Z,4.20
2022-08-28T18:43:35.750Z,3.38
2022-08-28T18:46:03.131Z,3.28
2022-08-28T18:48:31.559Z,3.08
2022-08-28T18:50:58.008Z,2.85
2022-08-28T18:53:24.493Z,2.70
2022-08-28T18:55:52.799Z,2.88
2022-08-28T18:58:20.490Z,3.35
2022-08-28T19:00:46.878Z,2.97
2022-08-28T19:03:14.552Z,2.95
2022-08-28T19:05:41.394Z,4.00
2022-08-28T19:08:07.992Z,2.80
2022-08-28T19:10:35.356Z,3.15
2022-08-28T19:13:02.412Z,2.63
2022-08-28T19:15:29.475Z,3.00
2022-08-28T19:17:55.984Z,2.97
2022-08-28T19:20:22.535Z,3.05
2022-08-28T19:22:49.206Z,2.95
2022-08-28T19:25:28.409Z,3.30
2022-08-28T19:27:59.252Z,2.45
2022-08-28T19:30:27.053Z,3.17
2022-08-28T19:32:53.493Z,2.83
2022-08-28T19:35:19.983Z,2.72
2022-08-28T19:37:47.081Z,3.70
2022-08-28T19:40:13.609Z,3.20
2022-08-28T19:42:40.373Z,3.20
2022-08-28T19:45:07.824Z,3.38
2022-08-28T19:47:35.723Z,3.60
2022-08-28T19:50:02.873Z,4.07
2022-08-28T19:52:29.682Z,3.20
2022-08-28T19:54:56.086Z,3.25
2022-08-28T19:57:22.598Z,3.53
2022-08-28T19:59:49.011Z,3.50
2022-08-28T20:02:15.684Z,3.30
2022-08-28T20:04:42.054Z,3.65
2022-08-28T20:07:08.538Z,3.65
2022-08-28T20:09:34.965Z,3.85
2022-08-28T20:12:02.686Z,3.38
2022-08-28T20:14:29.069Z,3.65
2022-08-28T20:16:55.517Z,3.53
2022-08-28T20:19:22.581Z,3.40
2022-08-28T20:21:50.024Z,3.53
2022-08-28T20:24:20.277Z,3.40
2022-08-28T20:26:46.976Z,3.35
2022-08-28T20:29:13.914Z,3.28
2022-08-28T20:31:41.426Z,3.13
2022-08-28T20:34:09.123Z,3.20
2022-08-28T20:36:35.679Z,3.05
2022-08-28T20:39:04.644Z,3.30
2022-08-28T20:41:38.077Z,4.03
2022-08-28T20:44:06.316Z,3.35
2022-08-28T20:46:37.048Z,3.83
2022-08-28T20:49:06.781Z,3.53
2022-08-28T20:51:52.251Z,3.63
2022-08-28T20:54:24.877Z,5.20
2022-08-28T20:56:52.162Z,3.60
2022-08-28T20:59:19.307Z,4.28
2022-08-28T21:01:45.943Z,3.80
2022-08-28T21:04:12.371Z,3.65
2022-08-28T21:06:38.799Z,4.22
2022-08-28T21:09:05.211Z,4.32
2022-08-28T21:11:31.611Z,4.25
2022-08-28T21:13:57.982Z,4.10
2022-08-28T21:16:24.478Z,3.97
2022-08-28T21:19:14.842Z,4.00
2022-08-28T21:21:37.649Z,3.83
2022-08-28T21:24:08.838Z,4.32
2022-08-28T21:26:37.500Z,3.72
2022-08-28T21:29:05.318Z,3.70
2022-08-28T21:31:32.208Z,3.70
2022-08-28T21:33:58.686Z,3.83
2022-08-28T21:36:25.102Z,4.82
2022-08-28T21:38:51.576Z,4.15
2022-08-28T21:41:18.090Z,4.18
2022-08-28T21:43:45.709Z,4.45
2022-08-28T21:46:14.169Z,4.40
2022-08-28T21:48:41.333Z,4.30
2022-08-28T21:51:08.847Z,3.83
2022-08-28T21:53:35.514Z,4.15
2022-08-28T21:56:02.349Z,4.28
2022-08-28T21:58:28.730Z,3.83
2022-08-28T22:00:58.719Z,3.80
2022-08-28T22:03:25.595Z,4.03
2022-08-28T22:05:52.497Z,4.97
2022-08-28T22:08:19.749Z,4.25
2022-08-28T22:10:46.614Z,4.00
2022-08-28T22:13:13.708Z,4.50
2022-08-28T22:15:41.167Z,4.75
2022-08-28T22:18:08.239Z,4.03
2022-08-28T22:20:35.933Z,4.38
2022-08-28T22:23:11.128Z,4.35
2022-08-28T22:25:40.708Z,4.18
2022-08-28T22:28:07.866Z,4.32
2022-08-28T22:30:34.743Z,4.63
2022-08-28T22:33:01.741Z,4.40
2022-08-28T22:35:28.172Z,4.45
2022-08-28T22:37:54.937Z,4.55
2022-08-28T22:40:22.010Z,4.05
2022-08-28T22:42:50.492Z,4.05
2022-08-28T22:45:17.688Z,4.30
2022-08-28T22:47:44.228Z,4.43
2022-08-28T22:50:10.866Z,4.25
2022-08-28T22:52:37.426Z,3.70
2022-08-28T22:55:04.387Z,3.80
2022-08-28T22:57:33.093Z,4.38
2022-08-28T23:00:02.953Z,4.10
2022-08-28T23:02:29.723Z,4.00
2022-08-28T23:04:56.143Z,4.85
2022-08-28T23:07:22.551Z,4.25
2022-08-28T23:09:49.219Z,4.22
2022-08-28T23:12:15.613Z,4.68
2022-08-28T23:14:45.291Z,4.32
2022-08-28T23:17:14.212Z,4.88
2022-08-28T23:19:43.621Z,4.00
2022-08-28T23:22:12.793Z,4.18
2022-08-28T23:24:39.456Z,4.78
2022-08-28T23:27:32.395Z,5.18
2022-08-28T23:29:53.256Z,4.47
2022-08-28T23:32:20.155Z,4.70
2022-08-28T23:34:46.619Z,3.85
2022-08-28T23:37:13.052Z,5.07
2022-08-28T23:39:39.431Z,5.13
2022-08-28T23:42:05.907Z,4.50
2022-08-28T23:44:32.312Z,5.68
2022-08-28T23:46:58.726Z,4.47
2022-08-28T23:49:27.031Z,4.75
2022-08-28T23:51:53.608Z,4.50
2022-08-28T23:54:19.989Z,4.95
2022-08-28T23:56:46.367Z,4.50
2022-08-28T23:59:12.988Z,4.88
